createdAt,value
2018-11-13T00:00:28.219Z,94.08
2018-11-13T00:02:56.774Z,93.57
2018-11-13T00:05:25.629Z,93.53
2018-11-13T00:07:54.293Z,94.15
2018-11-13T00:10:23.244Z,94.27
2018-11-13T00:12:51.939Z,94.17
2018-11-13T00:15:20.748Z,95.18
2018-11-13T00:17:49.098Z,95.08
2018-11-13T00:20:18.482Z,94.77
2018-11-13T00:22:46.853Z,94.95
2018-11-13T00:25:16.232Z,95.08
2018-11-13T00:27:44.824Z,94.66
2018-11-13T00:30:15.536Z,94.96
2018-11-13T00:32:44.787Z,95.01
2018-11-13T00:35:15.569Z,94.49
2018-11-13T00:37:44.424Z,94.96
2018-11-13T00:40:14.685Z,95.08
2018-11-13T00:42:43.996Z,95.60
2018-11-13T00:45:13.408Z,95.02
2018-11-13T00:47:41.752Z,94.06
2018-11-13T00:50:11.678Z,94.67
2018-11-13T00:52:40.354Z,94.22
2018-11-13T00:55:08.920Z,95.03
2018-11-13T00:57:38.319Z,95.18
2018-11-13T01:00:10.305Z,94.95
2018-11-13T01:02:38.574Z,94.73
2018-11-13T01:05:09.037Z,94.42
2018-11-13T01:07:37.808Z,94.65
2018-11-13T01:10:07.459Z,94.74
2018-11-13T01:12:35.833Z,94.94
2018-11-13T01:15:04.166Z,94.91
2018-11-13T01:17:32.780Z,94.45
2018-11-13T01:20:01.172Z,94.74
2018-11-13T01:22:29.604Z,95.18
2018-11-13T01:24:58.655Z,94.76
2018-11-13T01:27:27.259Z,93.69
2018-11-13T01:29:55.468Z,93.99
2018-11-13T01:32:24.559Z,94.49
2018-11-13T01:34:53.007Z,94.84
2018-11-13T01:37:21.379Z,94.35
2018-11-13T01:39:49.644Z,93.95
2018-11-13T01:42:17.891Z,94.91
2018-11-13T01:44:46.107Z,94.29
2018-11-13T01:47:14.401Z,94.74
2018-11-13T01:49:42.673Z,95.27
2018-11-13T01:52:10.915Z,94.15
2018-11-13T01:54:39.195Z,93.88
2018-11-13T01:57:07.457Z,94.13
2018-11-13T01:59:35.751Z,94.61
2018-11-13T02:02:04.281Z,94.41
2018-11-13T02:04:33.094Z,94.59
2018-11-13T02:07:01.293Z,94.15
2018-11-13T02:09:29.482Z,94.33
2018-11-13T02:11:57.778Z,93.18
2018-11-13T02:14:25.970Z,93.89
2018-11-13T02:16:54.167Z,94.28
2018-11-13T02:19:22.515Z,94.14
2018-11-13T02:21:50.800Z,93.26
2018-11-13T02:24:19.093Z,93.58
2018-11-13T02:26:47.363Z,94.08
2018-11-13T02:29:16.295Z,94.06
2018-11-13T02:31:44.514Z,93.72
2018-11-13T02:34:12.692Z,94.21
2018-11-13T02:36:40.879Z,93.94
2018-11-13T02:39:10.786Z,94.34
2018-11-13T02:41:39.127Z,94.89
2018-11-13T02:44:07.656Z,94.30
2018-11-13T02:46:36.061Z,94.19
2018-11-13T02:49:04.656Z,94.10
2018-11-13T02:51:32.863Z,94.00
2018-11-13T02:54:01.084Z,93.69
2018-11-13T02:56:29.275Z,93.62
2018-11-13T02:58:57.575Z,93.78
2018-11-13T03:01:25.800Z,93.60
2018-11-13T03:03:53.980Z,93.58
2018-11-13T03:06:22.170Z,94.00
2018-11-13T03:08:50.364Z,94.08
2018-11-13T03:11:18.668Z,93.96
2018-11-13T03:13:46.969Z,93.49
2018-11-13T03:16:15.175Z,92.63
2018-11-13T03:18:43.488Z,92.90
2018-11-13T03:21:11.714Z,93.27
2018-11-13T03:23:39.909Z,93.12
2018-11-13T03:26:08.382Z,93.25
2018-11-13T03:28:36.776Z,93.39
2018-11-13T03:31:05.169Z,93.02
2018-11-13T03:33:33.365Z,93.04
2018-11-13T03:36:01.563Z,92.58
2018-11-13T03:38:29.755Z,92.14
2018-11-13T03:40:58.032Z,92.91
2018-11-13T03:43:26.231Z,92.70
2018-11-13T03:45:54.563Z,92.32
2018-11-13T03:48:22.819Z,92.22
2018-11-13T03:50:51.022Z,92.37
2018-11-13T03:53:19.238Z,92.55
2018-11-13T03:55:47.407Z,92.91
2018-11-13T03:58:15.631Z,92.58
2018-11-13T04:00:43.832Z,92.78
2018-11-13T04:03:12.029Z,92.54
2018-11-13T04:05:40.312Z,92.86
2018-11-13T04:08:08.604Z,92.44
2018-11-13T04:10:40.217Z,93.01
2018-11-13T04:13:08.508Z,92.36
2018-11-13T04:15:36.701Z,92.71
2018-11-13T04:18:05.088Z,92.13
2018-11-13T04:20:33.294Z,92.29
2018-11-13T04:23:02.411Z,92.78
2018-11-13T04:25:30.598Z,92.34
2018-11-13T04:27:58.797Z,92.50
2018-11-13T04:30:27.134Z,91.60
2018-11-13T04:32:55.273Z,92.03
2018-11-13T04:35:23.486Z,92.06
2018-11-13T04:37:51.791Z,92.10
2018-11-13T04:40:20.863Z,92.23
2018-11-13T04:42:50.256Z,92.46
2018-11-13T04:45:20.163Z,91.95
2018-11-13T04:47:49.078Z,92.27
2018-11-13T04:50:18.151Z,92.43
2018-11-13T04:52:46.383Z,92.02
2018-11-13T04:55:14.913Z,92.14
2018-11-13T04:57:43.957Z,92.07
2018-11-13T05:00:16.892Z,91.61
2018-11-13T05:02:45.907Z,91.96
2018-11-13T05:05:15.076Z,91.98
2018-11-13T05:07:45.518Z,92.12
2018-11-13T05:10:13.839Z,91.40
2018-11-13T05:12:43.199Z,91.62
2018-11-13T05:15:11.552Z,91.79
2018-11-13T05:17:40.655Z,91.74
2018-11-13T05:20:09.665Z,91.41
2018-11-13T05:22:37.856Z,91.72
2018-11-13T05:25:09.077Z,91.88
2018-11-13T05:27:37.460Z,91.87
2018-11-13T05:30:07.343Z,92.43
2018-11-13T05:32:35.548Z,92.40
2018-11-13T05:35:03.867Z,92.15
2018-11-13T05:37:32.066Z,91.80
2018-11-13T05:40:00.287Z,91.29
2018-11-13T05:42:28.580Z,91.75
2018-11-13T05:44:56.831Z,91.70
2018-11-13T05:47:25.698Z,91.71
2018-11-13T05:49:53.871Z,92.08
2018-11-13T05:52:22.063Z,92.28
2018-11-13T05:54:50.292Z,92.81
2018-11-13T05:57:18.491Z,92.48
2018-11-13T05:59:47.919Z,92.66
2018-11-13T06:02:16.098Z,91.73
2018-11-13T06:04:44.278Z,92.42
2018-11-13T06:07:12.477Z,92.60
2018-11-13T06:09:40.668Z,93.30
2018-11-13T06:12:09.782Z,92.98
2018-11-13T06:14:37.976Z,93.61
2018-11-13T06:17:06.163Z,93.30
2018-11-13T06:19:34.463Z,93.10
2018-11-13T06:22:02.733Z,92.46
2018-11-13T06:24:30.916Z,92.43
2018-11-13T06:26:59.111Z,92.46
2018-11-13T06:29:27.325Z,92.77
2018-11-13T06:31:55.558Z,92.80
2018-11-13T06:34:23.743Z,92.76
2018-11-13T06:36:51.928Z,92.65
2018-11-13T06:39:20.112Z,92.14
2018-11-13T06:41:48.415Z,92.39
2018-11-13T06:44:16.610Z,92.44
2018-11-13T06:46:44.796Z,92.40
2018-11-13T06:49:13.004Z,92.34
2018-11-13T06:51:41.220Z,92.28
2018-11-13T06:54:20.683Z,92.07
2018-11-13T06:56:48.951Z,91.57
2018-11-13T06:59:17.234Z,91.54
2018-11-13T07:01:45.424Z,91.11
2018-11-13T07:04:14.839Z,91.75
2018-11-13T07:06:43.017Z,89.55
2018-11-13T07:09:11.395Z,90.23
2018-11-13T07:11:39.968Z,89.58
2018-11-13T07:14:08.176Z,90.02
2018-11-13T07:16:36.375Z,89.83
2018-11-13T07:19:04.880Z,89.28
2018-11-13T07:21:33.822Z,89.64
2018-11-13T07:24:02.112Z,90.57
2018-11-13T07:26:30.779Z,89.88
2018-11-13T07:28:59.244Z,89.58
2018-11-13T07:31:27.467Z,89.20
2018-11-13T07:33:55.672Z,89.62
2018-11-13T07:36:23.887Z,89.28
2018-11-13T07:38:52.446Z,89.36
2018-11-13T07:41:20.826Z,90.12
2018-11-13T07:43:49.020Z,89.94
2018-11-13T07:46:17.336Z,89.88
2018-11-13T07:48:45.755Z,88.92
2018-11-13T07:51:14.004Z,88.51
2018-11-13T07:53:42.278Z,87.61
2018-11-13T07:56:22.590Z,87.97
2018-11-13T07:58:50.967Z,88.64
2018-11-13T08:01:19.167Z,87.97
2018-11-13T08:03:47.385Z,86.74
2018-11-13T08:06:15.696Z,87.60
2018-11-13T08:08:43.898Z,87.69
2018-11-13T08:11:12.159Z,87.83
2018-11-13T08:13:40.999Z,87.86
2018-11-13T08:16:09.111Z,88.27
2018-11-13T08:18:37.300Z,88.45
2018-11-13T08:21:05.569Z,88.25
2018-11-13T08:23:33.719Z,88.60
2018-11-13T08:26:02.011Z,88.03
2018-11-13T08:28:30.243Z,87.33
2018-11-13T08:30:58.435Z,86.25
2018-11-13T08:33:26.904Z,86.49
2018-11-13T08:35:55.224Z,86.41
2018-11-13T08:38:23.516Z,85.42
2018-11-13T08:40:52.852Z,86.30
2018-11-13T08:43:21.040Z,84.76
2018-11-13T08:45:49.231Z,85.66
2018-11-13T08:48:17.467Z,84.20
2018-11-13T08:50:45.734Z,83.56
2018-11-13T08:53:17.799Z,83.73
2018-11-13T08:55:46.721Z,84.12
2018-11-13T08:58:14.920Z,83.95
2018-11-13T09:00:43.106Z,83.62
2018-11-13T09:03:11.400Z,82.53
2018-11-13T09:05:39.603Z,82.87
2018-11-13T09:08:07.815Z,83.57
2018-11-13T09:10:36.011Z,83.15
2018-11-13T09:13:04.208Z,82.63
2018-11-13T09:15:32.873Z,82.58
2018-11-13T09:18:01.165Z,82.71
2018-11-13T09:20:29.323Z,82.30
2018-11-13T09:22:57.561Z,82.25
2018-11-13T09:25:26.927Z,82.26
2018-11-13T09:27:55.119Z,82.31
2018-11-13T09:30:23.522Z,80.99
2018-11-13T09:32:51.701Z,80.99
2018-11-13T09:35:20.144Z,81.14
2018-11-13T09:37:48.719Z,80.38
2018-11-13T09:40:19.075Z,80.41
2018-11-13T09:42:48.459Z,81.06
2018-11-13T09:45:17.099Z,80.78
2018-11-13T09:47:45.370Z,80.85
2018-11-13T09:50:15.230Z,79.79
2018-11-13T09:52:44.796Z,80.82
2018-11-13T09:55:14.451Z,81.01
2018-11-13T09:57:42.651Z,80.73
2018-11-13T10:00:15.402Z,81.07
2018-11-13T10:02:45.876Z,80.93
2018-11-13T10:05:14.073Z,81.23
2018-11-13T10:07:42.404Z,80.72
2018-11-13T10:10:11.517Z,82.18
2018-11-13T10:12:39.664Z,80.70
2018-11-13T10:15:11.196Z,78.89
2018-11-13T10:17:39.697Z,79.79
2018-11-13T10:20:08.894Z,79.31
2018-11-13T10:22:37.083Z,79.40
2018-11-13T10:25:06.271Z,78.61
2018-11-13T10:27:34.509Z,77.84
2018-11-13T10:30:02.703Z,76.92
2018-11-13T10:32:31.004Z,76.73
2018-11-13T10:34:59.228Z,75.88
2018-11-13T10:37:27.430Z,76.04
2018-11-13T10:39:55.632Z,76.96
2018-11-13T10:42:23.928Z,76.96
2018-11-13T10:44:52.371Z,78.42
2018-11-13T10:47:20.563Z,79.33
2018-11-13T10:49:48.809Z,78.05
2018-11-13T10:52:17.001Z,76.71
2018-11-13T10:54:45.308Z,77.48
2018-11-13T10:57:14.023Z,76.33
2018-11-13T10:59:42.247Z,79.56
2018-11-13T11:02:15.818Z,77.26
2018-11-13T11:04:47.746Z,75.73
2018-11-13T11:07:15.950Z,75.07
2018-11-13T11:09:44.719Z,75.61
2018-11-13T11:12:13.005Z,76.88
2018-11-13T11:14:41.190Z,73.52
2018-11-13T11:17:09.767Z,74.31
2018-11-13T11:19:38.037Z,75.37
2018-11-13T11:22:06.202Z,72.88
2018-11-13T11:24:34.388Z,71.90
2018-11-13T11:27:02.606Z,70.77
2018-11-13T11:29:30.879Z,71.94
2018-11-13T11:31:59.083Z,68.64
2018-11-13T11:34:27.308Z,69.70
2018-11-13T11:36:55.495Z,69.63
2018-11-13T11:39:23.694Z,71.48
2018-11-13T11:41:51.924Z,71.10
2018-11-13T11:44:20.211Z,71.23
2018-11-13T11:46:48.400Z,72.94
2018-11-13T11:49:16.634Z,71.69
2018-11-13T11:51:44.847Z,72.08
2018-11-13T11:54:13.049Z,70.66
2018-11-13T11:56:41.468Z,71.14
2018-11-13T11:59:09.795Z,71.53
2018-11-13T12:01:38.209Z,70.24
2018-11-13T12:04:06.645Z,66.96
2018-11-13T12:06:34.947Z,67.64
2018-11-13T12:09:03.380Z,66.08
2018-11-13T12:11:31.762Z,64.05
2018-11-13T12:14:00.183Z,63.63
2018-11-13T12:16:28.533Z,64.64
2018-11-13T12:18:56.828Z,63.25
2018-11-13T12:21:25.111Z,64.46
2018-11-13T12:23:53.767Z,64.08
2018-11-13T12:26:22.600Z,65.50
2018-11-13T12:28:50.796Z,63.51
2018-11-13T12:31:19.207Z,64.41
2018-11-13T12:33:47.732Z,63.97
2018-11-13T12:36:15.928Z,64.90
2018-11-13T12:38:44.888Z,64.69
2018-11-13T12:41:13.107Z,65.90
2018-11-13T12:43:41.312Z,66.79
2018-11-13T12:46:09.508Z,65.91
2018-11-13T12:48:37.829Z,65.61
2018-11-13T12:51:07.099Z,65.18
2018-11-13T12:53:36.291Z,65.73
2018-11-13T12:56:04.704Z,65.51
2018-11-13T12:58:33.261Z,67.07
2018-11-13T13:01:02.969Z,67.00
2018-11-13T13:03:31.162Z,68.30
2018-11-13T13:05:59.347Z,68.53
2018-11-13T13:08:27.599Z,67.31
2018-11-13T13:10:55.776Z,68.31
2018-11-13T13:13:23.978Z,66.79
2018-11-13T13:15:52.216Z,65.97
2018-11-13T13:18:20.412Z,64.99
2018-11-13T13:20:48.600Z,65.44
2018-11-13T13:23:16.922Z,66.28
2018-11-13T13:25:45.189Z,66.10
2018-11-13T13:28:13.431Z,66.19
2018-11-13T13:30:42.691Z,65.77
2018-11-13T13:33:11.353Z,65.20
2018-11-13T13:35:51.055Z,66.19
2018-11-13T13:38:19.276Z,65.54
2018-11-13T13:40:48.799Z,65.79
2018-11-13T13:43:22.596Z,66.78
2018-11-13T13:45:51.078Z,66.71
2018-11-13T13:48:19.991Z,67.55
2018-11-13T13:50:48.340Z,67.66
2018-11-13T13:53:17.456Z,67.60
2018-11-13T13:55:46.172Z,67.04
2018-11-13T13:58:15.128Z,68.56
2018-11-13T14:00:43.512Z,67.69
2018-11-13T14:03:12.408Z,68.49
2018-11-13T14:05:41.724Z,68.13
2018-11-13T14:08:10.903Z,67.96
2018-11-13T14:10:39.107Z,69.05
2018-11-13T14:13:07.582Z,69.27
2018-11-13T14:15:35.900Z,68.13
2018-11-13T14:18:04.024Z,67.18
2018-11-13T14:20:35.243Z,67.17
2018-11-13T14:23:03.463Z,66.79
2018-11-13T14:25:31.790Z,65.81
2018-11-13T14:28:00.195Z,65.58
2018-11-13T14:30:30.284Z,64.45
2018-11-13T14:33:01.246Z,65.70
2018-11-13T14:35:29.519Z,65.50
2018-11-13T14:37:57.991Z,66.32
2018-11-13T14:40:29.582Z,67.50
2018-11-13T14:42:58.011Z,67.00
2018-11-13T14:45:26.699Z,68.42
2018-11-13T14:47:55.015Z,67.17
2018-11-13T14:50:24.585Z,67.99
2018-11-13T14:52:53.163Z,67.71
2018-11-13T14:55:24.590Z,67.82
2018-11-13T14:57:53.204Z,67.13
2018-11-13T15:00:22.816Z,67.94
2018-11-13T15:02:51.996Z,67.45
2018-11-13T15:05:21.119Z,67.98
2018-11-13T15:07:50.566Z,67.63
2018-11-13T15:10:39.690Z,68.00
2018-11-13T15:13:08.451Z,68.68
2018-11-13T15:15:36.657Z,68.87
2018-11-13T15:18:05.248Z,68.57
2018-11-13T15:20:33.454Z,69.17
2018-11-13T15:23:01.739Z,68.91
2018-11-13T15:25:30.447Z,69.79
2018-11-13T15:27:58.638Z,69.72
2018-11-13T15:30:29.364Z,69.78
2018-11-13T15:33:02.221Z,69.97
2018-11-13T15:35:31.568Z,70.10
2018-11-13T15:37:59.763Z,70.46
2018-11-13T15:40:30.135Z,70.91
2018-11-13T15:42:58.384Z,73.31
2018-11-13T15:45:26.655Z,71.39
2018-11-13T15:47:55.844Z,71.73
2018-11-13T15:50:25.323Z,72.47
2018-11-13T15:52:53.584Z,71.86
2018-11-13T15:55:23.031Z,72.95
2018-11-13T15:57:51.390Z,72.38
2018-11-13T16:00:26.042Z,73.38
2018-11-13T16:02:54.820Z,73.35
2018-11-13T16:05:29.566Z,73.45
2018-11-13T16:07:58.790Z,73.33
2018-11-13T16:10:27.036Z,73.75
2018-11-13T16:12:55.379Z,74.17
2018-11-13T16:15:24.443Z,74.59
2018-11-13T16:17:53.409Z,75.59
2018-11-13T16:20:22.616Z,75.20
2018-11-13T16:22:50.819Z,75.71
2018-11-13T16:25:19.026Z,75.79
2018-11-13T16:27:47.228Z,76.79
2018-11-13T16:30:18.656Z,77.26
2018-11-13T16:32:47.583Z,77.93
2018-11-13T16:35:16.848Z,78.50
2018-11-13T16:37:46.660Z,77.06
2018-11-13T16:40:18.123Z,78.72
2018-11-13T16:42:47.012Z,80.42
2018-11-13T16:45:16.394Z,80.96
2018-11-13T16:47:44.890Z,81.34
2018-11-13T16:50:30.823Z,81.31
2018-11-13T16:52:59.398Z,81.39
2018-11-13T16:55:32.999Z,82.25
2018-11-13T16:58:02.528Z,81.05
2018-11-13T17:00:30.905Z,81.84
2018-11-13T17:02:59.156Z,81.27
2018-11-13T17:05:29.073Z,81.80
2018-11-13T17:07:57.196Z,81.72
2018-11-13T17:10:26.635Z,82.10
2018-11-13T17:12:55.232Z,82.54
2018-11-13T17:15:24.538Z,84.05
2018-11-13T17:17:53.622Z,86.35
2018-11-13T17:20:22.054Z,87.70
2018-11-13T17:22:50.570Z,87.39
2018-11-13T17:25:20.187Z,87.75
2018-11-13T17:27:49.640Z,86.20
2018-11-13T17:30:22.158Z,85.02
2018-11-13T17:32:51.063Z,84.17
2018-11-13T17:35:21.372Z,84.08
2018-11-13T17:37:50.312Z,84.00
2018-11-13T17:40:20.052Z,83.34
2018-11-13T17:42:49.066Z,83.41
2018-11-13T17:45:34.671Z,84.52
2018-11-13T17:48:04.990Z,84.71
2018-11-13T17:50:36.343Z,86.88
2018-11-13T17:53:05.242Z,86.62
2018-11-13T17:55:33.446Z,86.94
2018-11-13T17:58:03.136Z,87.15
2018-11-13T18:00:34.708Z,85.96
2018-11-13T18:03:03.662Z,86.59
2018-11-13T18:05:32.225Z,87.76
2018-11-13T18:08:01.349Z,87.96
2018-11-13T18:10:30.319Z,87.97
2018-11-13T18:12:59.706Z,88.11
2018-11-13T18:15:28.694Z,87.68
2018-11-13T18:17:56.932Z,87.74
2018-11-13T18:20:26.515Z,89.19
2018-11-13T18:22:54.702Z,89.01
2018-11-13T18:25:22.899Z,89.03
2018-11-13T18:27:52.526Z,89.64
2018-11-13T18:30:23.129Z,89.64
2018-11-13T18:32:51.542Z,88.31
2018-11-13T18:35:21.454Z,88.55
2018-11-13T18:37:50.888Z,88.09
2018-11-13T18:40:20.063Z,88.05
2018-11-13T18:42:49.276Z,88.31
2018-11-13T18:45:20.736Z,89.89
2018-11-13T18:47:49.024Z,91.26
2018-11-13T18:50:27.081Z,92.69
2018-11-13T18:52:55.323Z,93.45
2018-11-13T18:55:23.656Z,92.39
2018-11-13T18:57:52.294Z,92.05
2018-11-13T19:00:22.046Z,91.98
2018-11-13T19:02:50.247Z,91.01
2018-11-13T19:05:19.296Z,90.45
2018-11-13T19:07:47.495Z,89.44
2018-11-13T19:10:50.338Z,88.85
2018-11-13T19:13:21.001Z,89.10
2018-11-13T19:15:50.959Z,88.83
2018-11-13T19:18:20.623Z,89.51
2018-11-13T19:20:48.832Z,88.52
2018-11-13T19:23:17.278Z,88.07
2018-11-13T19:25:46.518Z,88.25
2018-11-13T19:28:15.038Z,88.34
2018-11-13T19:30:42.941Z,88.32
2018-11-13T19:33:11.228Z,89.55
2018-11-13T19:35:39.614Z,89.88
2018-11-13T19:38:08.562Z,90.85
2018-11-13T19:40:37.039Z,90.45
2018-11-13T19:43:06.934Z,90.26
2018-11-13T19:45:38.388Z,90.86
2018-11-13T19:48:06.574Z,90.94
2018-11-13T19:50:35.891Z,90.87
2018-11-13T19:53:04.223Z,90.91
2018-11-13T19:55:32.851Z,89.30
2018-11-13T19:58:01.099Z,90.05
2018-11-13T20:00:30.555Z,88.84
2018-11-13T20:03:00.844Z,89.15
2018-11-13T20:05:30.662Z,90.26
2018-11-13T20:07:58.907Z,90.87
2018-11-13T20:10:29.370Z,90.33
2018-11-13T20:12:58.887Z,90.93
2018-11-13T20:15:27.852Z,90.97
2018-11-13T20:17:56.040Z,88.70
2018-11-13T20:20:25.667Z,88.26
2018-11-13T20:22:54.319Z,88.12
2018-11-13T20:25:24.549Z,88.67
2018-11-13T20:27:53.844Z,89.75
2018-11-13T20:30:24.371Z,89.87
2018-11-13T20:32:52.611Z,90.88
2018-11-13T20:35:20.852Z,90.95
2018-11-13T20:37:49.811Z,90.45
2018-11-13T20:40:19.423Z,89.89
2018-11-13T20:42:49.757Z,90.64
2018-11-13T20:45:18.062Z,89.62
2018-11-13T20:47:46.255Z,88.84
2018-11-13T20:50:16.208Z,89.39
2018-11-13T20:52:44.603Z,90.68
2018-11-13T20:55:13.082Z,92.06
2018-11-13T20:57:41.303Z,91.56
2018-11-13T21:00:14.531Z,91.65
2018-11-13T21:02:42.936Z,90.91
2018-11-13T21:05:11.136Z,92.14
2018-11-13T21:07:39.431Z,92.20
2018-11-13T21:10:11.122Z,93.62
2018-11-13T21:12:39.603Z,92.51
2018-11-13T21:15:09.841Z,92.33
2018-11-13T21:17:38.920Z,91.41
2018-11-13T21:20:09.809Z,90.70
2018-11-13T21:22:38.234Z,90.64
2018-11-13T21:25:07.862Z,91.36
2018-11-13T21:27:36.033Z,92.51
2018-11-13T21:30:06.025Z,91.91
2018-11-13T21:32:34.923Z,92.21
2018-11-13T21:35:03.120Z,92.01
2018-11-13T21:37:31.430Z,92.93
2018-11-13T21:39:59.956Z,92.95
2018-11-13T21:42:28.144Z,92.44
2018-11-13T21:44:56.354Z,93.24
2018-11-13T21:47:24.568Z,92.98
2018-11-13T21:49:52.854Z,92.42
2018-11-13T21:52:21.339Z,92.78
2018-11-13T21:54:50.323Z,92.46
2018-11-13T21:57:22.672Z,92.49
2018-11-13T21:59:50.877Z,92.81
2018-11-13T22:02:19.091Z,92.52
2018-11-13T22:04:48.242Z,93.63
2018-11-13T22:07:16.633Z,93.32
2018-11-13T22:09:44.899Z,93.26
2018-11-13T22:12:13.210Z,93.95
2018-11-13T22:14:41.528Z,93.77
2018-11-13T22:17:09.725Z,93.64
2018-11-13T22:19:38.074Z,94.22
2018-11-13T22:22:06.372Z,94.91
2018-11-13T22:24:34.783Z,93.91
2018-11-13T22:27:03.298Z,94.14
2018-11-13T22:29:31.539Z,93.46
2018-11-13T22:32:00.187Z,93.86
2018-11-13T22:34:28.389Z,93.58
2018-11-13T22:36:56.610Z,94.17
2018-11-13T22:39:25.330Z,94.83
2018-11-13T22:41:53.531Z,94.35
2018-11-13T22:44:21.835Z,93.94
2018-11-13T22:46:50.104Z,94.31
2018-11-13T22:49:18.504Z,95.00
2018-11-13T22:51:47.167Z,94.42
2018-11-13T22:54:15.852Z,94.90
2018-11-13T22:56:44.206Z,94.16
2018-11-13T22:59:12.624Z,93.71
2018-11-13T23:01:40.961Z,93.20
2018-11-13T23:04:09.286Z,93.76
2018-11-13T23:06:37.629Z,93.67
2018-11-13T23:09:08.994Z,93.12
2018-11-13T23:11:37.262Z,93.95
2018-11-13T23:14:06.937Z,94.08
2018-11-13T23:16:35.446Z,94.16
2018-11-13T23:19:03.930Z,94.26
2018-11-13T23:21:32.144Z,93.74
2018-11-13T23:24:00.834Z,94.74
2018-11-13T23:26:29.140Z,93.96
2018-11-13T23:28:57.643Z,93.79
2018-11-13T23:31:25.905Z,94.01
2018-11-13T23:33:54.554Z,94.19
2018-11-13T23:36:22.491Z,93.89
2018-11-13T23:38:51.039Z,93.49
2018-11-13T23:41:19.291Z,93.54
2018-11-13T23:43:47.513Z,93.16
2018-11-13T23:46:15.811Z,93.82
2018-11-13T23:48:44.218Z,94.29
2018-11-13T23:51:12.419Z,94.34
2018-11-13T23:53:40.744Z,94.23
2018-11-13T23:56:08.959Z,94.16
2018-11-13T23:58:37.450Z,95.20
